createdAt,value
2022-08-05T08:53:20.008Z,988.40
2022-08-05T08:54:20.016Z,988.38
2022-08-05T08:56:04.679Z,988.41
2022-08-05T08:56:49.620Z,988.32
2022-08-05T08:57:57.958Z,988.37
2022-08-05T08:58:48.983Z,988.36
2022-08-05T08:59:49.028Z,988.37
2022-08-05T09:00:48.080Z,988.31
2022-08-05T09:01:57.396Z,988.29
2022-08-05T09:02:48.922Z,988.16
2022-08-05T09:03:48.224Z,988.28
2022-08-05T09:05:16.857Z,988.25
2022-08-05T09:06:07.624Z,988.24
2022-08-05T09:06:49.950Z,988.28
2022-08-05T09:07:56.985Z,988.26
2022-08-05T09:08:48.846Z,988.35
2022-08-05T09:09:47.839Z,988.29
2022-08-05T09:10:48.075Z,988.29
2022-08-05T09:11:50.789Z,988.25
2022-08-05T09:12:51.048Z,988.19
2022-08-05T09:14:09.555Z,988.12
2022-08-05T09:14:57.812Z,988.22
2022-08-05T09:15:48.851Z,988.19
2022-08-05T09:16:48.778Z,988.16
2022-08-05T09:17:49.695Z,988.15
2022-08-05T09:18:47.780Z,988.10
2022-08-05T09:19:55.041Z,988.16
2022-08-05T09:20:48.779Z,988.06
2022-08-05T09:22:22.657Z,987.99
2022-08-05T09:22:51.957Z,988.03
2022-08-05T09:23:47.685Z,988.12
2022-08-05T09:24:47.733Z,988.08
2022-08-05T09:26:01.420Z,988.08
2022-08-05T09:26:48.720Z,988.08
2022-08-05T09:28:04.564Z,988.04
2022-08-05T09:28:48.800Z,988.01
2022-08-05T09:29:48.196Z,988.05
2022-08-05T09:30:47.682Z,987.99
2022-08-05T09:32:41.546Z,988.08
2022-08-05T09:32:48.710Z,988.09
2022-08-05T09:33:47.647Z,988.05
2022-08-05T09:34:47.652Z,988.06
2022-08-05T09:35:47.710Z,988.05
2022-08-05T09:36:55.022Z,988.12
2022-08-05T09:38:17.763Z,988.07
2022-08-05T09:38:48.533Z,988.13
2022-08-05T09:39:52.354Z,988.06
2022-08-05T09:40:53.737Z,988.15
2022-08-05T09:41:53.956Z,988.11
2022-08-05T09:42:48.573Z,988.21
2022-08-05T09:43:49.448Z,988.14
2022-08-05T09:44:49.466Z,988.09
2022-08-05T09:46:06.177Z,988.02
2022-08-05T09:46:51.757Z,987.95
2022-08-05T09:47:55.977Z,987.92
2022-08-05T09:49:06.570Z,987.98
2022-08-05T09:50:00.412Z,987.91
2022-08-05T09:50:48.504Z,987.92
2022-08-05T09:51:49.401Z,987.94
2022-08-05T09:52:47.454Z,988.05
2022-08-05T09:53:54.313Z,988.00
2022-08-05T09:54:48.377Z,987.87
2022-08-05T09:55:57.383Z,987.74
2022-08-05T09:56:51.837Z,987.81
2022-08-05T09:57:47.437Z,987.86
2022-08-05T09:58:47.457Z,987.78
2022-08-05T09:59:47.326Z,987.74
2022-08-05T10:00:47.409Z,987.75
2022-08-05T10:01:47.358Z,987.80
2022-08-05T10:02:47.564Z,987.70
2022-08-05T10:03:58.576Z,987.71
2022-08-05T10:04:48.269Z,987.69
2022-08-05T10:05:47.450Z,987.67
2022-08-05T10:06:54.773Z,987.66
2022-08-05T10:08:35.539Z,987.73
2022-08-05T10:08:53.946Z,987.72
2022-08-05T10:09:48.222Z,987.76
2022-08-05T10:10:48.381Z,987.78
2022-08-05T10:11:48.213Z,987.78
2022-08-05T10:12:49.479Z,987.77
2022-08-05T10:13:49.208Z,987.73
2022-08-05T10:14:47.218Z,987.67
2022-08-05T10:15:47.282Z,987.70
2022-08-05T10:16:52.427Z,987.71
2022-08-05T10:17:56.861Z,987.67
2022-08-05T10:18:48.392Z,987.64
2022-08-05T10:20:03.865Z,987.65
2022-08-05T10:20:48.521Z,987.63
2022-08-05T10:21:47.102Z,987.61
2022-08-05T10:22:50.757Z,987.69
2022-08-05T10:23:59.947Z,987.64
2022-08-05T10:24:48.112Z,987.61
2022-08-05T10:25:47.090Z,987.64
2022-08-05T10:26:51.910Z,987.61
2022-08-05T10:28:12.845Z,987.58
2022-08-05T10:28:48.238Z,987.61
2022-08-05T10:30:06.952Z,987.62
2022-08-05T10:32:50.751Z,987.58
2022-08-05T10:32:59.896Z,987.51
2022-08-05T10:33:00.859Z,987.51
2022-08-05T10:33:54.357Z,987.57
2022-08-05T10:34:47.978Z,987.60
2022-08-05T10:35:59.048Z,987.52
2022-08-05T10:36:47.954Z,987.51
2022-08-05T10:37:47.069Z,987.55
2022-08-05T10:38:47.061Z,987.47
2022-08-05T10:40:03.865Z,987.56
2022-08-05T10:40:48.000Z,987.51
2022-08-05T10:41:47.406Z,987.44
2022-08-05T10:42:46.910Z,987.41
2022-08-05T10:43:46.942Z,987.38
2022-08-05T10:44:46.930Z,987.39
2022-08-05T10:45:46.978Z,987.43
2022-08-05T10:46:46.935Z,987.41
2022-08-05T10:47:47.167Z,987.42
2022-08-05T10:48:56.967Z,987.45
2022-08-05T10:49:49.108Z,987.41
2022-08-05T10:50:47.849Z,987.40
2022-08-05T10:51:53.155Z,987.41
2022-08-05T10:52:49.827Z,987.48
2022-08-05T10:53:46.790Z,987.40
2022-08-05T10:54:56.048Z,987.34
2022-08-05T10:56:04.952Z,987.34
2022-08-05T10:56:49.403Z,987.37
2022-08-05T10:57:46.913Z,987.30
2022-08-05T10:58:48.625Z,987.34
2022-08-05T11:00:03.770Z,987.33
2022-08-05T11:00:47.776Z,987.34
2022-08-05T11:02:02.800Z,987.36
2022-08-05T11:02:50.521Z,987.29
2022-08-05T11:03:46.777Z,987.38
2022-08-05T11:04:46.784Z,987.33
2022-08-05T11:05:46.881Z,987.38
2022-08-05T11:06:46.730Z,987.27
2022-08-05T11:08:01.814Z,987.27
2022-08-05T11:08:47.733Z,987.32
2022-08-05T11:09:47.251Z,987.33
2022-08-05T11:10:59.992Z,987.34
2022-08-05T11:11:52.855Z,987.33
2022-08-05T11:12:54.328Z,987.31
2022-08-05T11:13:58.004Z,987.33
2022-08-05T11:15:11.864Z,987.34
2022-08-05T11:16:00.596Z,987.38
2022-08-05T11:16:57.248Z,987.44
2022-08-05T11:17:57.615Z,987.48
2022-08-05T11:18:47.580Z,987.45
2022-08-05T11:20:16.961Z,987.41
2022-08-05T11:20:47.640Z,987.27
2022-08-05T11:21:49.462Z,987.29
2022-08-05T11:22:50.023Z,987.28
2022-08-05T11:24:05.160Z,987.38
2022-08-05T11:24:50.670Z,987.42
2022-08-05T11:26:06.223Z,987.34
2022-08-05T11:26:49.768Z,987.35
2022-08-05T11:27:51.999Z,987.30
2022-08-05T11:28:47.594Z,987.18
2022-08-05T11:29:46.483Z,987.31
2022-08-05T11:30:46.572Z,987.37
2022-08-05T11:31:57.291Z,987.46
2022-08-05T11:32:47.805Z,987.48
2022-08-05T11:33:48.132Z,987.53
2022-08-05T11:34:50.858Z,987.50
2022-08-05T11:36:08.254Z,987.48
2022-08-05T11:36:47.481Z,987.44
2022-08-05T11:38:30.853Z,987.45
2022-08-05T11:38:51.855Z,987.51
2022-08-05T11:39:48.065Z,987.56
2022-08-05T11:40:46.709Z,987.45
2022-08-05T11:42:00.681Z,987.49
2022-08-05T11:42:47.364Z,987.57
2022-08-05T11:44:04.645Z,987.54
2022-08-05T11:44:53.731Z,987.62
2022-08-05T11:46:23.428Z,987.54
2022-08-05T11:46:58.607Z,987.55
2022-08-05T11:47:48.452Z,987.60
2022-08-05T11:48:46.344Z,987.56
2022-08-05T11:49:50.888Z,987.65
2022-08-05T11:50:47.270Z,987.60
2022-08-05T11:51:49.160Z,987.54
2022-08-05T11:52:48.758Z,987.60
2022-08-05T11:53:46.244Z,987.54
2022-08-05T11:54:48.465Z,987.64
2022-08-05T11:55:47.227Z,987.62
2022-08-05T11:56:50.265Z,987.65
2022-08-05T11:58:11.012Z,987.67
2022-08-05T11:58:52.810Z,987.61
2022-08-05T11:59:50.231Z,987.55
2022-08-05T12:00:46.965Z,987.52
2022-08-05T12:01:47.186Z,987.62
2022-08-05T12:02:47.182Z,987.58
2022-08-05T12:03:56.118Z,987.61
2022-08-05T12:04:47.200Z,987.63
2022-08-05T12:05:47.234Z,987.52
2022-08-05T12:06:48.689Z,987.61
2022-08-05T12:08:07.283Z,987.63
2022-08-05T12:08:50.047Z,987.57
2022-08-05T12:09:53.126Z,987.63
2022-08-05T12:10:47.082Z,987.64
2022-08-05T12:11:46.180Z,987.69
2022-08-05T12:12:55.366Z,987.66
2022-08-05T12:13:48.454Z,987.64
2022-08-05T12:14:47.246Z,987.62
2022-08-05T12:15:49.616Z,987.61
2022-08-05T12:16:46.486Z,987.58
2022-08-05T12:18:09.974Z,987.64
2022-08-05T12:18:49.332Z,987.73
2022-08-05T12:20:17.169Z,987.59
2022-08-05T12:20:47.038Z,987.67
2022-08-05T12:21:45.998Z,987.67
2022-08-05T12:22:46.261Z,987.52
2022-08-05T12:23:46.097Z,987.48
2022-08-05T12:24:49.532Z,987.44
2022-08-05T12:25:45.938Z,987.48
2022-08-05T12:26:46.169Z,987.47
2022-08-05T12:27:53.090Z,987.39
2022-08-05T12:28:46.922Z,987.43
2022-08-05T12:29:45.892Z,987.46
2022-08-05T12:30:46.914Z,987.45
2022-08-05T12:31:50.223Z,987.46
2022-08-05T12:32:49.646Z,987.66
2022-08-05T12:33:46.230Z,987.59
2022-08-05T12:34:45.849Z,987.56
2022-08-05T12:35:46.451Z,987.63
2022-08-05T12:36:45.932Z,987.69
2022-08-05T12:37:45.831Z,987.55
2022-08-05T12:38:45.804Z,987.43
2022-08-05T12:39:51.420Z,987.55
2022-08-05T12:40:46.840Z,987.66
2022-08-05T12:41:45.930Z,987.63
2022-08-05T12:42:45.907Z,987.70
2022-08-05T12:43:46.059Z,987.65
2022-08-05T12:44:45.767Z,987.59
2022-08-05T12:45:49.733Z,987.60
2022-08-05T12:46:45.843Z,987.62
2022-08-05T12:48:01.764Z,987.69
2022-08-05T12:48:45.737Z,987.70
2022-08-05T12:50:04.098Z,987.74
2022-08-05T12:50:46.811Z,987.69
2022-08-05T12:52:14.291Z,987.71
2022-08-05T12:52:46.805Z,987.61
2022-08-05T12:53:55.592Z,987.71
2022-08-05T12:54:46.718Z,987.66
2022-08-05T12:55:45.655Z,987.58
2022-08-05T12:56:45.656Z,987.62
2022-08-05T12:58:50.572Z,987.69
2022-08-05T12:58:51.627Z,987.67
2022-08-05T13:01:56.895Z,987.68
2022-08-05T13:02:03.861Z,987.61
2022-08-05T13:02:04.442Z,987.62
2022-08-05T13:02:47.162Z,987.47
2022-08-05T13:03:45.743Z,987.42
2022-08-05T13:04:52.486Z,987.40
2022-08-05T13:05:46.583Z,987.37
2022-08-05T13:06:51.898Z,987.40
2022-08-05T13:08:02.444Z,987.32
2022-08-05T13:08:51.847Z,987.33
2022-08-05T13:09:50.434Z,987.33
2022-08-05T13:10:50.366Z,987.29
2022-08-05T13:12:02.524Z,987.32
2022-08-05T13:12:51.014Z,987.39
2022-08-05T13:14:05.297Z,987.31
2022-08-05T13:14:46.477Z,987.36
2022-08-05T13:15:50.627Z,987.32
2022-08-05T13:16:45.496Z,987.31
2022-08-05T13:17:45.450Z,987.22
2022-08-05T13:18:45.514Z,987.19
2022-08-05T13:19:52.643Z,987.22
2022-08-05T13:20:46.446Z,987.15
2022-08-05T13:21:48.087Z,987.16
2022-08-05T13:22:46.391Z,987.13
2022-08-05T13:23:50.695Z,987.11
2022-08-05T13:24:58.138Z,987.12
2022-08-05T13:25:52.623Z,987.15
2022-08-05T13:26:50.803Z,987.17
2022-08-05T13:27:45.677Z,987.07
2022-08-05T13:28:46.589Z,987.10
2022-08-05T13:30:33.020Z,987.11
2022-08-05T13:30:46.353Z,987.12
2022-08-05T13:32:03.938Z,987.14
2022-08-05T13:32:46.656Z,987.23
2022-08-05T13:34:21.464Z,987.16
2022-08-05T13:34:46.289Z,987.14
2022-08-05T13:35:51.329Z,987.16
2022-08-05T13:36:46.462Z,987.18
2022-08-05T13:37:46.579Z,987.28
2022-08-05T13:38:46.305Z,987.19
2022-08-05T13:40:13.878Z,987.21
2022-08-05T13:40:49.929Z,987.19
2022-08-05T13:41:46.756Z,987.17
2022-08-05T13:42:45.223Z,987.22
2022-08-05T13:43:54.828Z,987.19
2022-08-05T13:44:46.447Z,987.19
2022-08-05T13:45:45.663Z,987.26
2022-08-05T13:47:04.986Z,987.18
2022-08-05T13:48:09.888Z,987.16
2022-08-05T13:48:57.962Z,987.20
2022-08-05T13:49:46.570Z,987.18
2022-08-05T13:50:45.151Z,987.19
2022-08-05T13:51:46.538Z,987.23
2022-08-05T13:52:45.116Z,987.15
2022-08-05T13:53:47.852Z,987.18
2022-08-05T13:54:53.328Z,987.16
2022-08-05T13:55:50.167Z,987.16
2022-08-05T13:56:51.493Z,987.16
2022-08-05T13:57:50.935Z,987.22
2022-08-05T13:58:53.465Z,987.21
2022-08-05T13:59:59.372Z,987.13
2022-08-05T14:00:46.038Z,987.19
2022-08-05T14:01:56.663Z,987.17
2022-08-05T14:02:46.083Z,987.08
2022-08-05T14:03:45.025Z,987.14
2022-08-05T14:04:51.079Z,987.11
2022-08-05T14:06:04.735Z,987.14
2022-08-05T14:06:47.581Z,987.14
2022-08-05T14:07:59.894Z,987.21
2022-08-05T14:08:45.935Z,987.17
2022-08-05T14:09:46.340Z,987.14
2022-08-05T14:10:44.931Z,987.12
2022-08-05T14:12:04.365Z,987.07
2022-08-05T14:12:48.825Z,987.09
2022-08-05T14:13:48.259Z,987.10
2022-08-05T14:14:44.959Z,987.08
2022-08-05T14:16:05.295Z,987.14
2022-08-05T14:16:45.906Z,987.08
2022-08-05T14:17:44.972Z,987.04
2022-08-05T14:18:44.861Z,987.10
2022-08-05T14:19:54.378Z,987.10
2022-08-05T14:20:46.829Z,987.01
2022-08-05T14:22:09.368Z,986.99
2022-08-05T14:22:50.222Z,986.98
2022-08-05T14:23:44.791Z,987.01
2022-08-05T14:24:44.845Z,986.89
2022-08-05T14:25:45.399Z,986.87
2022-08-05T14:27:01.951Z,986.85
2022-08-05T14:27:47.477Z,986.92
2022-08-05T14:28:52.428Z,986.97
2022-08-05T14:29:45.890Z,987.03
2022-08-05T14:30:46.415Z,987.02
2022-08-05T14:32:02.600Z,987.00
2022-08-05T14:32:45.859Z,987.01
2022-08-05T14:34:00.202Z,987.01
2022-08-05T14:34:45.725Z,986.96
2022-08-05T14:35:50.242Z,987.02
2022-08-05T14:36:48.665Z,987.04
2022-08-05T14:37:45.607Z,987.02
2022-08-05T14:38:44.711Z,987.02
2022-08-05T14:39:49.907Z,987.05
2022-08-05T14:40:45.650Z,986.98
2022-08-05T14:42:08.749Z,987.10
2022-08-05T14:42:45.658Z,987.08
2022-08-05T14:44:02.724Z,987.13
2022-08-05T14:44:45.579Z,987.01
2022-08-05T14:45:44.592Z,987.10
2022-08-05T14:46:44.764Z,987.08
2022-08-05T14:48:03.501Z,987.03
2022-08-05T14:48:49.847Z,987.03
2022-08-05T14:49:59.493Z,987.03
2022-08-05T14:50:45.546Z,987.07
2022-08-05T14:51:44.518Z,987.03
2022-08-05T14:52:53.052Z,987.06
2022-08-05T14:53:45.545Z,987.06
2022-08-05T14:54:52.929Z,987.10
2022-08-05T14:55:52.088Z,987.08
2022-08-05T14:56:46.906Z,987.08
2022-08-05T14:57:54.414Z,987.09
2022-08-05T14:58:47.799Z,987.04
2022-08-05T14:59:45.446Z,987.05
2022-08-05T15:00:58.327Z,987.07
2022-08-05T15:01:48.719Z,987.09
2022-08-05T15:02:45.508Z,987.12
2022-08-05T15:03:45.300Z,987.07
2022-08-05T15:04:45.029Z,987.18
2022-08-05T15:06:12.970Z,987.10
2022-08-05T15:08:56.862Z,987.09
2022-08-05T15:09:51.145Z,987.13
2022-08-05T15:10:33.497Z,987.14
2022-08-05T15:11:52.692Z,987.13
2022-08-05T15:17:45.656Z,987.25
2022-08-05T15:18:34.972Z,987.27
2022-08-05T15:19:33.989Z,987.25
2022-08-05T15:20:33.955Z,987.27
2022-08-05T15:21:33.990Z,987.38
2022-08-05T15:22:33.925Z,987.36
2022-08-05T15:23:33.901Z,987.41
2022-08-05T15:24:33.908Z,987.45
2022-08-05T15:25:52.906Z,987.51
2022-08-05T15:26:34.938Z,987.41
2022-08-05T15:27:35.982Z,987.47
2022-08-05T15:28:33.937Z,987.49
2022-08-05T15:29:41.649Z,987.47
2022-08-05T15:30:35.126Z,987.49
2022-08-05T15:31:34.844Z,987.56
2022-08-05T15:32:33.806Z,987.58
2022-08-05T15:34:18.579Z,987.60
2022-08-05T15:34:34.894Z,987.51
2022-08-05T15:35:36.341Z,987.57
2022-08-05T15:36:34.790Z,987.65
2022-08-05T15:38:32.667Z,987.62
2022-08-05T15:38:41.779Z,987.62
2022-08-05T15:40:58.875Z,987.58
2022-08-05T15:41:00.147Z,987.61
2022-08-05T15:41:57.702Z,987.57
2022-08-05T15:42:57.526Z,987.71
2022-08-05T15:43:45.559Z,987.59
2022-08-05T15:44:34.719Z,987.71
2022-08-05T15:45:38.025Z,987.82
2022-08-05T15:46:35.745Z,987.86
2022-08-05T15:47:35.927Z,987.85
2022-08-05T15:48:33.648Z,987.89
2022-08-05T15:49:55.097Z,987.90
2022-08-05T15:50:34.643Z,987.88
2022-08-05T15:52:13.878Z,987.87
2022-08-05T15:52:53.807Z,987.89
2022-08-05T15:53:38.354Z,987.88
2022-08-05T15:54:37.425Z,987.91
2022-08-05T15:56:04.129Z,987.91
2022-08-05T15:56:34.658Z,987.95
2022-08-05T15:57:34.762Z,987.94
2022-08-05T15:58:35.516Z,987.94
2022-08-05T15:59:33.540Z,988.04
2022-08-05T16:00:50.499Z,988.00
2022-08-05T16:01:39.823Z,988.01
2022-08-05T16:02:34.716Z,988.00
2022-08-05T16:03:33.996Z,988.05
2022-08-05T16:04:33.610Z,988.08
2022-08-05T16:05:33.458Z,988.09
2022-08-05T16:06:33.485Z,988.01
2022-08-05T16:07:33.773Z,988.21
2022-08-05T16:08:33.422Z,988.23
2022-08-05T16:09:33.413Z,988.16
2022-08-05T16:10:33.417Z,988.22
2022-08-05T16:11:42.414Z,988.30
2022-08-05T16:12:34.445Z,988.35
2022-08-05T16:13:34.854Z,988.30
2022-08-05T16:14:33.401Z,988.36
2022-08-05T16:15:33.943Z,988.39
2022-08-05T16:16:33.712Z,988.48
2022-08-05T16:17:33.337Z,988.46
2022-08-05T16:18:33.451Z,988.45
2022-08-05T16:20:05.159Z,988.50
2022-08-05T16:20:34.680Z,988.42
2022-08-05T16:21:58.249Z,988.44
2022-08-05T16:22:34.761Z,988.42
2022-08-05T16:23:53.835Z,988.51
2022-08-05T16:24:39.864Z,988.49
2022-08-05T16:25:34.764Z,988.45
2022-08-05T16:26:33.266Z,988.47
2022-08-05T16:27:47.147Z,988.47
2022-08-05T16:28:34.214Z,988.47
2022-08-05T16:29:37.634Z,988.46
2022-08-05T16:30:33.188Z,988.52
2022-08-05T16:31:57.354Z,988.44
2022-08-05T16:32:34.620Z,988.51
2022-08-05T16:33:41.317Z,988.52
2022-08-05T16:34:34.417Z,988.47
2022-08-05T16:35:33.661Z,988.49
2022-08-05T16:36:34.201Z,988.54
2022-08-05T16:38:03.073Z,988.50
2022-08-05T16:38:34.144Z,988.52
2022-08-05T16:40:04.545Z,988.52
2022-08-05T16:40:34.164Z,988.53
2022-08-05T16:42:14.041Z,988.61
2022-08-05T16:42:34.736Z,988.63
2022-08-05T16:43:33.052Z,988.59
2022-08-05T16:44:33.184Z,988.54
2022-08-05T16:46:03.478Z,988.51
2022-08-05T16:46:34.029Z,988.47
2022-08-05T16:47:36.017Z,988.50
2022-08-05T16:48:35.362Z,988.49
2022-08-05T16:49:33.024Z,988.51
2022-08-05T16:50:33.065Z,988.50
2022-08-05T16:51:47.534Z,988.54
2022-08-05T16:52:34.006Z,988.64
2022-08-05T16:54:04.897Z,988.60
2022-08-05T16:54:33.940Z,988.68
2022-08-05T16:55:46.543Z,988.72
2022-08-05T16:56:34.000Z,988.80
2022-08-05T16:58:00.352Z,988.83
2022-08-05T16:58:33.921Z,988.85
2022-08-05T16:59:32.885Z,988.82
2022-08-05T17:00:35.031Z,988.84
2022-08-05T17:01:54.997Z,988.81
2022-08-05T17:02:33.885Z,988.83
2022-08-05T17:03:32.880Z,988.79
2022-08-05T17:04:32.870Z,988.78
2022-08-05T17:05:32.845Z,988.83
2022-08-05T17:06:32.813Z,988.79
2022-08-05T17:07:43.685Z,988.83
2022-08-05T17:08:51.909Z,988.84
2022-08-05T17:09:57.251Z,988.85
2022-08-05T17:10:33.813Z,988.91
2022-08-05T17:11:48.272Z,988.89
2022-08-05T17:12:50.327Z,988.87
2022-08-05T17:13:37.071Z,988.93
2022-08-05T17:14:37.007Z,988.94
2022-08-05T17:15:48.562Z,988.98
2022-08-05T17:16:36.101Z,989.04
2022-08-05T17:17:42.416Z,989.07
2022-08-05T17:18:33.822Z,989.01
2022-08-05T17:19:32.677Z,989.05
2022-08-05T17:20:32.660Z,988.96
2022-08-05T17:21:36.387Z,988.94
2022-08-05T17:22:32.669Z,989.03
2022-08-05T17:24:04.841Z,988.90
2022-08-05T17:24:40.315Z,989.01
2022-08-05T17:25:39.917Z,989.05
2022-08-05T17:26:33.657Z,989.00
2022-08-05T17:27:33.698Z,989.04
2022-08-05T17:28:32.586Z,988.99
2022-08-05T17:29:33.931Z,988.95
2022-08-05T17:30:33.544Z,988.99
2022-08-05T17:31:56.466Z,989.00
2022-08-05T17:32:34.620Z,989.02
2022-08-05T17:33:38.923Z,988.94
2022-08-05T17:34:34.863Z,988.98
2022-08-05T17:36:07.855Z,988.96
2022-08-05T17:36:37.295Z,989.00
2022-08-05T17:37:40.202Z,989.07
2022-08-05T17:38:33.471Z,989.05
2022-08-05T17:39:34.655Z,989.02
2022-08-05T17:40:32.449Z,989.00
2022-08-05T17:42:18.158Z,989.07
2022-08-05T17:42:33.500Z,989.07
2022-08-05T17:43:46.521Z,989.07
2022-08-05T17:44:33.480Z,989.14
2022-08-05T17:45:38.516Z,989.09
2022-08-05T17:46:33.378Z,989.17
2022-08-05T17:47:32.416Z,989.14
2022-08-05T17:48:32.353Z,989.08
2022-08-05T17:50:00.523Z,989.12
2022-08-05T17:50:33.557Z,989.18
2022-08-05T17:51:40.393Z,989.21
2022-08-05T17:52:33.467Z,989.27
2022-08-05T17:53:33.021Z,989.24
2022-08-05T17:54:32.300Z,989.29
2022-08-05T17:55:37.121Z,989.28
2022-08-05T17:56:33.267Z,989.22
2022-08-05T17:57:32.272Z,989.27
2022-08-05T17:58:32.717Z,989.26
2022-08-05T17:59:32.362Z,989.25
2022-08-05T18:00:32.254Z,989.32
2022-08-05T18:01:47.230Z,989.35
2022-08-05T18:02:33.277Z,989.33
2022-08-05T18:03:56.285Z,989.39
2022-08-05T18:04:33.236Z,989.34
2022-08-05T18:05:35.378Z,989.36
2022-08-05T18:06:32.367Z,989.42
2022-08-05T18:07:32.958Z,989.44
2022-08-05T18:08:33.206Z,989.44
2022-08-05T18:09:59.709Z,989.48
2022-08-05T18:10:33.689Z,989.49
2022-08-05T18:11:32.844Z,989.51
2022-08-05T18:12:32.127Z,989.43
2022-08-05T18:13:36.666Z,989.54
2022-08-05T18:14:33.157Z,989.59
2022-08-05T18:15:34.299Z,989.60
2022-08-05T18:16:32.110Z,989.64
2022-08-05T18:17:58.684Z,989.63
2022-08-05T18:18:33.219Z,989.67
2022-08-05T18:19:33.122Z,989.66
2022-08-05T18:20:32.502Z,989.70
2022-08-05T18:22:08.735Z,989.66
2022-08-05T18:22:45.953Z,989.67
2022-08-05T18:23:45.679Z,989.75
2022-08-05T18:24:32.970Z,989.79
2022-08-05T18:25:33.012Z,989.84
2022-08-05T18:26:32.289Z,989.81
2022-08-05T18:27:32.479Z,989.87
2022-08-05T18:28:32.067Z,989.84
2022-08-05T18:29:40.657Z,989.85
2022-08-05T18:30:32.916Z,989.91
2022-08-05T18:31:32.954Z,989.95
2022-08-05T18:32:32.198Z,990.08
2022-08-05T18:33:46.642Z,990.06
2022-08-05T18:34:40.736Z,990.19
2022-08-05T18:36:01.399Z,990.21
2022-08-05T18:36:32.908Z,990.24
2022-08-05T18:37:34.103Z,990.31
2022-08-05T18:38:32.809Z,990.40
2022-08-05T18:40:30.922Z,990.43
2022-08-05T18:41:53.055Z,990.43
2022-08-05T18:41:53.758Z,990.42
2022-08-05T18:42:32.865Z,990.48
2022-08-05T18:43:37.928Z,990.46
2022-08-05T18:44:35.286Z,990.53
2022-08-05T18:45:41.495Z,990.53
2022-08-05T18:46:32.828Z,990.56
2022-08-05T18:47:31.875Z,990.54
2022-08-05T18:48:33.320Z,990.54
2022-08-05T18:49:44.518Z,990.57
2022-08-05T18:50:44.924Z,990.64
2022-08-05T18:52:05.768Z,990.64
2022-08-05T18:52:33.644Z,990.65
2022-08-05T18:53:31.710Z,990.64
2022-08-05T18:54:31.943Z,990.68
2022-08-05T18:55:31.728Z,990.67
2022-08-05T18:56:31.671Z,990.67
2022-08-05T18:57:43.333Z,990.68
2022-08-05T18:58:32.670Z,990.62
2022-08-05T18:59:42.874Z,990.65
2022-08-05T19:00:34.799Z,990.72
2022-08-05T19:01:47.820Z,990.65
2022-08-05T19:02:32.599Z,990.68
2022-08-05T19:03:54.910Z,990.73
2022-08-05T19:04:32.538Z,990.69
2022-08-05T19:06:11.561Z,990.70
2022-08-05T19:06:37.227Z,990.75
2022-08-05T19:07:45.411Z,990.71
2022-08-05T19:08:32.497Z,990.69
2022-08-05T19:09:39.466Z,990.64
2022-08-05T19:10:32.588Z,990.65
2022-08-05T19:11:59.436Z,990.59
2022-08-05T19:12:32.496Z,990.63
2022-08-05T19:13:35.512Z,990.68
2022-08-05T19:14:59.570Z,990.70
2022-08-05T19:15:58.877Z,990.81
2022-08-05T19:16:36.889Z,990.79
2022-08-05T19:17:59.172Z,990.82
2022-08-05T19:18:32.385Z,990.84
2022-08-05T19:19:31.475Z,990.83
2022-08-05T19:20:31.362Z,990.81
2022-08-05T19:21:34.785Z,990.82
2022-08-05T19:22:31.594Z,990.85
2022-08-05T19:24:07.724Z,990.84
2022-08-05T19:24:34.389Z,990.89
2022-08-05T19:25:39.035Z,990.88
2022-08-05T19:26:32.354Z,990.87
2022-08-05T19:27:31.498Z,990.93
2022-08-05T19:28:33.031Z,990.90
2022-08-05T19:29:35.718Z,990.99
2022-08-05T19:30:32.269Z,990.93
2022-08-05T19:31:33.743Z,991.01
2022-08-05T19:32:32.261Z,991.02
2022-08-05T19:33:36.260Z,991.00
2022-08-05T19:34:32.284Z,990.98
2022-08-05T19:35:57.627Z,991.05
2022-08-05T19:36:32.323Z,991.11
2022-08-05T19:37:47.423Z,991.09
2022-08-05T19:38:32.162Z,991.09
2022-08-05T19:39:31.932Z,991.08
2022-08-05T19:40:32.243Z,991.06
2022-08-05T19:41:58.149Z,991.10
2022-08-05T19:42:35.417Z,991.11
2022-08-05T19:44:06.984Z,991.13
2022-08-05T19:44:32.183Z,991.19
2022-08-05T19:45:33.346Z,991.21
2022-08-05T19:46:32.142Z,991.29
2022-08-05T19:47:31.148Z,991.31
2022-08-05T19:48:31.203Z,991.33
2022-08-05T19:49:31.079Z,991.28
2022-08-05T19:50:31.036Z,991.33
2022-08-05T19:52:08.853Z,991.30
2022-08-05T19:52:32.661Z,991.29
2022-08-05T19:54:04.207Z,991.32
2022-08-05T19:54:32.094Z,991.31
2022-08-05T19:56:13.794Z,991.34
2022-08-05T19:56:32.620Z,991.39
2022-08-05T19:57:49.158Z,991.41
2022-08-05T19:58:32.118Z,991.50
2022-08-05T19:59:56.386Z,991.48
2022-08-05T20:00:32.001Z,991.44
2022-08-05T20:01:31.016Z,991.48
2022-08-05T20:02:31.309Z,991.50
2022-08-05T20:03:40.684Z,991.56
2022-08-05T20:04:31.996Z,991.53
2022-08-05T20:05:50.222Z,991.57
2022-08-05T20:06:36.043Z,991.59
2022-08-05T20:07:46.514Z,991.57
2022-08-05T20:08:31.879Z,991.58
2022-08-05T20:09:30.826Z,991.63
2022-08-05T20:10:31.817Z,991.65
2022-08-05T20:11:30.832Z,991.60
2022-08-05T20:12:32.266Z,991.59
2022-08-05T20:13:59.039Z,991.66
2022-08-05T20:14:31.871Z,991.67
2022-08-05T20:15:52.049Z,991.68
2022-08-05T20:16:31.989Z,991.73
2022-08-05T20:17:30.811Z,991.71
2022-08-05T20:18:33.622Z,991.71
2022-08-05T20:19:36.014Z,991.72
2022-08-05T20:20:31.750Z,991.71
2022-08-05T20:21:30.897Z,991.74
2022-08-05T20:22:30.729Z,991.76
2022-08-05T20:23:40.450Z,991.74
2022-08-05T20:24:31.728Z,991.81
2022-08-05T20:25:33.833Z,991.82
2022-08-05T20:26:31.678Z,991.85
2022-08-05T20:27:41.594Z,991.88
2022-08-05T20:28:31.623Z,991.87
2022-08-05T20:29:30.682Z,991.92
2022-08-05T20:30:30.605Z,991.97
2022-08-05T20:31:42.969Z,991.95
2022-08-05T20:32:31.628Z,991.97
2022-08-05T20:33:30.999Z,991.99
2022-08-05T20:34:30.582Z,991.95
2022-08-05T20:35:31.448Z,991.94
2022-08-05T20:36:30.613Z,992.02
2022-08-05T20:38:06.835Z,991.96
2022-08-05T20:38:35.432Z,991.91
2022-08-05T20:39:36.752Z,991.93
2022-08-05T20:40:32.815Z,991.92
2022-08-05T20:41:43.323Z,991.92
2022-08-05T20:42:31.495Z,992.03
2022-08-05T20:43:57.693Z,992.04
2022-08-05T20:44:31.473Z,992.06
2022-08-05T20:45:47.631Z,992.08
2022-08-05T20:46:31.430Z,992.14
2022-08-05T20:47:32.382Z,992.13
2022-08-05T20:48:30.572Z,992.12
2022-08-05T20:49:30.416Z,992.11
2022-08-05T20:50:31.418Z,992.12
2022-08-05T20:51:30.379Z,992.16
2022-08-05T20:52:30.378Z,992.13
2022-08-05T20:53:36.741Z,992.14
2022-08-05T20:54:43.173Z,992.18
2022-08-05T20:55:56.663Z,992.19
2022-08-05T20:56:35.440Z,992.20
2022-08-05T20:57:43.227Z,992.28
2022-08-05T20:58:31.324Z,992.28
2022-08-05T21:00:10.751Z,992.31
2022-08-05T21:00:52.066Z,992.29
2022-08-05T21:01:37.568Z,992.29
2022-08-05T21:02:31.291Z,992.40
2022-08-05T21:03:30.283Z,992.39
2022-08-05T21:04:30.247Z,992.38
2022-08-05T21:05:47.824Z,992.36
2022-08-05T21:06:31.332Z,992.39
2022-08-05T21:07:50.967Z,992.37
2022-08-05T21:08:41.263Z,992.30
2022-08-05T21:09:31.223Z,992.37
2022-08-05T21:10:30.337Z,992.29
2022-08-05T21:12:09.558Z,992.28
2022-08-05T21:12:31.192Z,992.31
2022-08-05T21:13:48.353Z,992.33
2022-08-05T21:14:32.051Z,992.31
2022-08-05T21:15:34.006Z,992.35
2022-08-05T21:16:30.900Z,992.34
2022-08-05T21:17:30.117Z,992.35
2022-08-05T21:18:30.086Z,992.33
2022-08-05T21:19:46.954Z,992.34
2022-08-05T21:20:33.192Z,992.40
2022-08-05T21:21:39.487Z,992.45
2022-08-05T21:22:31.047Z,992.48
2022-08-05T21:23:37.235Z,992.48
2022-08-05T21:24:31.062Z,992.53
2022-08-05T21:25:34.087Z,992.57
2022-08-05T21:26:30.457Z,992.54
2022-08-05T21:27:38.883Z,992.57
2022-08-05T21:28:31.001Z,992.57